Time;durP1;ratioP1;P1;durP2;ratioP2;P2;SDS_P1;SDS_P2;PMS_P1;PMS_P2;Temp;Humidity;BMP_temperature;BMP_pressure;BME280_temperature;BME280_humidity;BME280_pressure;Samples;Min_cycle;Max_cycle;Signal;HPM_P1;HPM_P2
2022/11/29 00:00:58;;;;;;;0.00;0.00;;;;;;;16.84;65.62;101531.50;2093274;28;20507;-75
2022/11/29 00:02:00;;;;;;;0.00;0.00;;;;;;;16.84;65.66;101534.22;2088523;28;20080;-75
2022/11/29 00:03:03;;;;;;;0.00;0.00;;;;;;;16.84;65.50;101534.22;2082949;28;20062;-75
2022/11/29 00:04:06;;;;;;;0.00;0.00;;;;;;;16.83;65.44;101540.81;2078269;28;20393;-75
2022/11/29 00:05:08;;;;;;;0.00;0.00;;;;;;;16.83;65.47;101535.34;2081217;28;20050;-74
2022/11/29 00:06:13;;;;;;;0.00;0.00;;;;;;;16.81;65.38;101532.22;2079207;28;20085;-75
2022/11/29 00:07:15;;;;;;;0.00;0.00;;;;;;;16.82;65.38;101539.25;2075650;28;20061;-75
2022/11/29 00:08:17;;;;;;;0.00;0.00;;;;;;;16.82;65.48;101539.25;2076541;28;20057;-75
2022/11/29 00:09:20;;;;;;;0.00;0.00;;;;;;;16.82;65.40;101539.25;2079693;28;20049;-75
2022/11/29 00:10:23;;;;;;;0.00;0.00;;;;;;;16.82;65.35;101533.78;2079294;28;20140;-75
2022/11/29 00:12:50;;;;;;;0.00;0.00;;;;;;;16.75;65.61;101534.47;2079491;28;20104;-75
2022/11/29 00:13:52;;;;;;;0.00;0.00;;;;;;;16.77;65.22;101537.63;2075080;28;20096;-75
2022/11/29 00:14:54;;;;;;;0.00;0.00;;;;;;;16.78;65.11;101535.66;2068178;28;20064;-75
2022/11/29 00:16:01;;;;;;;0.00;0.00;;;;;;;16.79;65.28;101534.53;2074447;28;20075;-74
2022/11/29 00:17:04;;;;;;;0.00;0.00;;;;;;;16.77;65.29;101542.28;2069643;28;20080;-74
2022/11/29 00:18:06;;;;;;;0.00;0.00;;;;;;;16.78;65.20;101544.63;2078618;28;20081;-74
2022/11/29 00:19:11;;;;;;;0.00;0.00;;;;;;;16.78;65.19;101544.63;2078975;28;20045;-74
2022/11/29 00:20:14;;;;;;;0.00;0.00;;;;;;;16.77;65.16;101547.72;2080164;28;20061;-74
2022/11/29 00:21:15;;;;;;;0.00;0.00;;;;;;;16.75;65.77;101547.31;2079236;28;20513;-74
2022/11/29 00:22:18;;;;;;;0.00;0.00;;;;;;;16.76;65.02;101546.94;2070658;28;20066;-74
2022/11/29 00:23:20;;;;;;;0.00;0.00;;;;;;;16.76;64.99;101546.16;2070691;28;20065;-74
2022/11/29 00:24:23;;;;;;;0.00;0.00;;;;;;;16.77;65.15;101547.72;2076995;28;20054;-74
2022/11/29 00:25:26;;;;;;;0.00;0.00;;;;;;;16.77;65.09;101553.19;2078175;28;20050;-73
2022/11/29 00:26:29;;;;;;;0.00;0.00;;;;;;;16.75;65.08;101550.03;2080175;28;20080;-74
2022/11/29 00:27:32;;;;;;;0.00;0.00;;;;;;;16.74;65.16;101554.72;2078017;28;20053;-74
2022/11/29 00:28:36;;;;;;;0.00;0.00;;;;;;;16.74;64.93;101554.72;2080101;28;21305;-74
2022/11/29 00:29:39;;;;;;;0.00;0.00;;;;;;;16.74;64.98;101554.72;2079714;28;20064;-74
2022/11/29 00:30:41;;;;;;;0.00;0.00;;;;;;;16.74;64.94;101548.47;2078607;28;20698;-73
2022/11/29 00:31:44;;;;;;;0.00;0.00;;;;;;;16.74;65.19;101553.91;2080166;28;20076;-74
2022/11/29 00:32:47;;;;;;;0.00;0.00;;;;;;;16.73;64.97;101555.09;2080255;28;20060;-74
2022/11/29 00:33:50;;;;;;;0.00;0.00;;;;;;;16.73;64.99;101557.81;2078538;28;20041;-74
2022/11/29 00:34:52;;;;;;;0.00;0.00;;;;;;;16.73;64.95;101557.81;2079392;28;20056;-74
2022/11/29 00:35:54;;;;;;;0.00;0.00;;;;;;;16.74;64.84;101559.38;2077651;28;21186;-74
2022/11/29 00:36:57;;;;;;;0.00;0.00;;;;;;;16.73;64.77;101547.66;2077430;28;20064;-74
2022/11/29 00:37:59;;;;;;;0.00;0.00;;;;;;;16.71;64.88;101554.66;2078585;28;20072;-74
2022/11/29 00:39:02;;;;;;;0.00;0.00;;;;;;;16.71;64.83;101544.53;2078682;28;20520;-74
2022/11/29 00:40:05;;;;;;;0.00;0.00;;;;;;;16.71;64.81;101560.09;2078856;28;20053;-74
2022/11/29 00:41:10;;;;;;;0.00;0.00;;;;;;;16.71;64.67;101546.47;2079311;28;20057;-74
2022/11/29 00:42:14;;;;;;;0.00;0.00;;;;;;;16.70;64.98;101553.09;2079510;28;20092;-74
2022/11/29 00:43:16;;;;;;;0.00;0.00;;;;;;;16.70;64.76;101564.00;2078749;28;20068;-74
2022/11/29 00:44:18;;;;;;;0.00;0.00;;;;;;;16.70;64.88;101564.00;2080541;28;20066;-74
2022/11/29 00:45:21;;;;;;;0.00;0.00;;;;;;;16.69;64.83;101559.66;2080597;28;20848;-74
2022/11/29 00:46:24;;;;;;;0.00;0.00;;;;;;;16.69;64.77;101563.19;2079208;28;20081;-74
2022/11/29 00:47:26;;;;;;;0.00;0.00;;;;;;;16.68;64.85;101561.59;2079014;28;20057;-74
2022/11/29 00:48:29;;;;;;;0.00;0.00;;;;;;;16.69;64.74;101557.75;2078053;28;20090;-73
2022/11/29 00:49:32;;;;;;;0.00;0.00;;;;;;;16.68;64.56;101553.41;2077956;28;20088;-73
2022/11/29 00:50:34;;;;;;;0.00;0.00;;;;;;;16.68;64.72;101560.84;2078595;28;20065;-73
2022/11/29 00:51:37;;;;;;;0.00;0.00;;;;;;;16.68;64.52;101549.94;2078638;28;20053;-72
2022/11/29 00:52:38;;;;;;;0.00;0.00;;;;;;;16.68;64.67;101560.84;2078936;28;20504;-74
2022/11/29 00:53:41;;;;;;;0.00;0.00;;;;;;;16.66;64.71;101553.00;2079629;28;20049;-74
2022/11/29 00:54:43;;;;;;;0.00;0.00;;;;;;;16.67;64.73;101559.25;2077209;28;20064;-73
2022/11/29 00:55:47;;;;;;;0.00;0.00;;;;;;;16.67;64.44;101556.50;2075845;28;20049;-74
2022/11/29 00:56:51;;;;;;;0.00;0.00;;;;;;;16.67;64.53;101554.59;2079185;28;20057;-72
2022/11/29 00:57:53;;;;;;;0.00;0.00;;;;;;;16.66;64.55;101558.47;2077584;28;20058;-74
2022/11/29 00:58:55;;;;;;;0.00;0.00;;;;;;;16.65;64.59;101565.06;2078869;28;20056;-73
2022/11/29 00:59:58;;;;;;;0.00;0.00;;;;;;;16.65;64.54;101561.56;2078796;28;20412;-73
2022/11/29 01:01:00;;;;;;;0.00;0.00;;;;;;;16.66;64.38;101563.13;2079799;28;20087;-73
2022/11/29 01:02:03;;;;;;;0.00;0.00;;;;;;;16.65;64.34;101575.19;2079627;28;20057;-73
2022/11/29 01:03:06;;;;;;;0.00;0.00;;;;;;;16.65;64.47;101564.28;2078466;28;20416;-73
2022/11/29 01:04:11;;;;;;;0.00;0.00;;;;;;;16.64;64.55;101562.69;2079630;28;20137;-74
2022/11/29 01:05:14;;;;;;;0.00;0.00;;;;;;;16.64;64.46;101559.97;2071151;28;20144;-74
2022/11/29 01:06:18;;;;;;;0.00;0.00;;;;;;;16.64;64.41;101565.41;2078130;28;20061;-73
2022/11/29 01:07:20;;;;;;;0.00;0.00;;;;;;;16.64;64.45;101565.41;2075464;28;20533;-73
2022/11/29 01:08:22;;;;;;;0.00;0.00;;;;;;;16.63;64.30;101567.38;2079898;28;20049;-73
2022/11/29 01:09:24;;;;;;;0.00;0.00;;;;;;;16.64;64.24;101573.59;2077373;28;20525;-73
2022/11/29 01:10:27;;;;;;;0.00;0.00;;;;;;;16.63;64.46;101572.03;2077354;28;20087;-73
2022/11/29 01:11:29;;;;;;;0.00;0.00;;;;;;;16.63;64.40;101566.59;2077947;28;20088;-72
2022/11/29 01:12:35;;;;;;;0.00;0.00;;;;;;;16.63;64.31;101569.31;2079979;28;20072;-73
2022/11/29 01:13:37;;;;;;;0.00;0.00;;;;;;;16.61;64.27;101563.41;2078182;28;20053;-73
2022/11/29 01:14:40;;;;;;;0.00;0.00;;;;;;;16.62;64.23;101573.19;2077250;28;20056;-73
2022/11/29 01:15:42;;;;;;;0.00;0.00;;;;;;;16.62;64.31;101573.19;2077649;28;20057;-73
2022/11/29 01:16:45;;;;;;;0.00;0.00;;;;;;;16.61;64.31;101571.59;2072827;28;20062;-73
2022/11/29 01:17:48;;;;;;;0.00;0.00;;;;;;;16.61;64.11;101575.13;2080653;28;20168;-73
2022/11/29 01:18:50;;;;;;;0.00;0.00;;;;;;;16.61;64.02;101577.06;2077394;28;20150;-73
2022/11/29 01:19:52;;;;;;;0.00;0.00;;;;;;;16.61;64.12;101582.50;2069250;28;20054;-73
2022/11/29 01:20:59;;;;;;;0.00;0.00;;;;;;;16.62;64.27;101579.41;2066493;28;20639;-73
2022/11/29 01:22:00;;;;;;;0.00;0.00;;;;;;;16.59;64.12;101573.91;2079588;28;20053;-73
2022/11/29 01:23:03;;;;;;;0.00;0.00;;;;;;;16.60;64.26;101578.22;2079136;28;20049;-73
2022/11/29 01:24:05;;;;;;;0.00;0.00;;;;;;;16.60;64.24;101580.94;2077728;28;20137;-73
2022/11/29 01:25:10;;;;;;;0.00;0.00;;;;;;;16.60;63.99;101576.28;2075419;28;20050;-73
2022/11/29 01:26:15;;;;;;;0.00;0.00;;;;;;;16.58;64.06;101578.59;2079677;28;20054;-73
2022/11/29 01:27:18;;;;;;;0.00;0.00;;;;;;;16.58;64.25;101580.50;2074767;28;20510;-74
2022/11/29 01:28:21;;;;;;;0.00;0.00;;;;;;;16.59;63.93;101580.16;2078870;28;20077;-73
2022/11/29 01:29:23;;;;;;;0.00;0.00;;;;;;;16.58;64.02;101583.25;2078220;28;20075;-73
2022/11/29 01:30:25;;;;;;;0.00;0.00;;;;;;;16.57;64.02;101576.97;2076978;28;20056;-73
2022/11/29 01:31:30;;;;;;;0.00;0.00;;;;;;;16.58;63.99;101583.25;2079929;28;20512;-74
2022/11/29 01:32:32;;;;;;;0.00;0.00;;;;;;;16.57;63.95;101587.13;2077072;28;20092;-73
2022/11/29 01:33:36;;;;;;;0.00;0.00;;;;;;;16.57;63.86;101581.66;2077309;28;20049;-73
2022/11/29 01:34:38;;;;;;;0.00;0.00;;;;;;;16.56;64.02;101583.59;2077120;28;20157;-73
2022/11/29 01:35:40;;;;;;;0.00;0.00;;;;;;;16.55;63.94;101583.97;2074009;28;20068;-73
2022/11/29 01:36:43;;;;;;;0.00;0.00;;;;;;;16.56;63.82;101588.25;2074323;28;20053;-73
2022/11/29 01:37:45;;;;;;;0.00;0.00;;;;;;;16.55;64.01;101592.13;2085966;28;20057;-73
2022/11/29 01:38:48;;;;;;;0.00;0.00;;;;;;;16.56;64.01;101588.25;2073454;28;20669;-73
2022/11/29 01:39:49;;;;;;;0.00;0.00;;;;;;;16.55;63.96;101589.41;2064074;28;20094;-74
2022/11/29 01:41:00;;;;;;;0.00;0.00;;;;;;;16.52;63.78;101590.94;2077191;28;20084;-73
2022/11/29 01:42:03;;;;;;;0.00;0.00;;;;;;;16.53;63.81;101587.06;2077603;28;20057;-73
2022/11/29 01:43:11;;;;;;;0.00;0.00;;;;;;;16.54;64.07;101593.31;2077848;28;20060;-73
2022/11/29 01:44:52;;;;;;;0.00;0.00;;;;;;;16.45;63.78;101579.91;2070757;28;20065;-74
2022/11/29 01:45:55;;;;;;;0.00;0.00;;;;;;;16.47;63.86;101582.25;2078461;28;20092;-74
2022/11/29 01:46:58;;;;;;;0.00;0.00;;;;;;;16.47;63.73;101580.34;2078455;28;20073;-73
2022/11/29 01:48:00;;;;;;;0.00;0.00;;;;;;;16.50;63.97;101587.78;2076876;28;20255;-73
2022/11/29 01:49:08;;;;;;;0.00;0.00;;;;;;;16.50;63.80;101582.31;2075253;28;20512;-73
2022/11/29 01:50:09;;;;;;;0.00;0.00;;;;;;;16.49;63.95;101590.88;2077724;28;20058;-73
2022/11/29 01:51:12;;;;;;;0.00;0.00;;;;;;;16.50;64.11;101598.69;2077872;28;20051;-72
2022/11/29 01:52:23;;;;;;;0.00;0.00;;;;;;;16.50;63.91;101589.72;2078733;28;20084;-73
2022/11/29 01:53:33;;;;;;;0.00;0.00;;;;;;;16.48;63.96;101586.53;2080346;28;20037;-74
2022/11/29 01:54:39;;;;;;;0.00;0.00;;;;;;;16.48;63.64;101595.53;2076943;28;20127;-74
2022/11/29 01:55:48;;;;;;;0.00;0.00;;;;;;;16.48;63.63;101589.28;2078850;28;20497;-74
2022/11/29 01:56:51;;;;;;;0.00;0.00;;;;;;;16.47;63.76;101598.63;2078883;28;20084;-73
2022/11/29 01:57:54;;;;;;;0.00;0.00;;;;;;;16.47;63.65;101587.72;2073938;28;20054;-74
2022/11/29 01:58:56;;;;;;;0.00;0.00;;;;;;;16.47;63.70;101596.69;2076372;28;20057;-74
2022/11/29 02:00:05;;;;;;;0.00;0.00;;;;;;;16.49;63.76;101588.16;2079084;28;20051;-74
2022/11/29 02:01:14;;;;;;;0.00;0.00;;;;;;;16.46;63.60;101586.16;2077613;28;20105;-74
2022/11/29 02:02:24;;;;;;;0.00;0.00;;;;;;;16.47;63.38;101593.16;2079801;28;20068;-74
2022/11/29 02:03:27;;;;;;;0.00;0.00;;;;;;;16.44;63.61;101592.72;2077126;28;20134;-74
2022/11/29 02:04:33;;;;;;;0.00;0.00;;;;;;;16.46;63.74;101588.88;2074779;28;20677;-74
2022/11/29 02:05:43;;;;;;;0.00;0.00;;;;;;;16.45;63.59;101590.78;2075061;28;20050;-74
2022/11/29 02:06:45;;;;;;;0.00;0.00;;;;;;;16.45;63.65;101590.78;2073591;28;20525;-74
2022/11/29 02:07:51;;;;;;;0.00;0.00;;;;;;;16.47;63.58;101593.16;2076760;28;20057;-74
2022/11/29 02:08:53;;;;;;;0.00;0.00;;;;;;;16.44;63.60;101600.91;2076677;28;20050;-74
2022/11/29 02:09:56;;;;;;;0.00;0.00;;;;;;;16.45;63.56;101601.69;2078326;28;20059;-74
2022/11/29 02:11:14;;;;;;;0.00;0.00;;;;;;;16.43;63.42;101602.03;2084070;28;20049;-74
2022/11/29 02:12:29;;;;;;;0.00;0.00;;;;;;;16.42;63.46;101605.13;2081544;28;20088;-75
2022/11/29 02:13:38;;;;;;;0.00;0.00;;;;;;;16.41;63.42;101606.28;2076416;28;20045;-74
2022/11/29 02:15:05;;;;;;;0.00;0.00;;;;;;;16.38;63.44;101601.53;2079407;28;20575;-73
2022/11/29 02:16:20;;;;;;;0.00;0.00;;;;;;;16.39;63.23;101603.13;2076595;28;20053;-74
2022/11/29 02:17:31;;;;;;;0.00;0.00;;;;;;;16.37;63.44;101600.75;2082345;28;20053;-74
2022/11/29 02:18:47;;;;;;;0.00;0.00;;;;;;;16.36;63.37;101592.94;2076431;28;20173;-74
2022/11/29 02:20:26;;;;;;;0.00;0.00;;;;;;;16.32;63.38;101601.03;2074383;28;20061;-74
2022/11/29 02:21:42;;;;;;;0.00;0.00;;;;;;;16.31;63.38;101604.13;2076497;28;20064;-74
2022/11/29 02:22:55;;;;;;;0.00;0.00;;;;;;;16.34;63.39;101606.94;2077193;28;20061;-74
2022/11/29 02:24:13;;;;;;;0.00;0.00;;;;;;;16.32;63.41;101600.25;2076857;28;20049;-74
2022/11/29 02:25:41;;;;;;;0.00;0.00;;;;;;;16.32;63.32;101608.41;2078852;28;20064;-74
2022/11/29 02:27:00;;;;;;;0.00;0.00;;;;;;;16.27;63.40;101604.06;2077043;28;20517;-74
2022/11/29 02:28:36;;;;;;;0.00;0.00;;;;;;;16.24;63.38;101602.06;2078200;28;20053;-74
2022/11/29 02:30:05;;;;;;;0.00;0.00;;;;;;;16.20;63.61;101595.75;2077186;28;20064;-74
2022/11/29 02:31:33;;;;;;;0.00;0.00;;;;;;;16.22;63.49;101601.63;2080295;28;20080;-74
2022/11/29 02:33:19;;;;;;;0.00;0.00;;;;;;;16.22;63.40;101598.13;2078355;28;20048;-74
2022/11/29 02:34:56;;;;;;;0.00;0.00;;;;;;;16.18;63.44;101599.97;2077055;28;20521;-74
2022/11/29 02:36:17;;;;;;;0.00;0.00;;;;;;;16.20;63.51;101601.22;2077710;28;20053;-74
2022/11/29 02:37:46;;;;;;;0.00;0.00;;;;;;;16.18;63.53;101602.69;2078047;28;20057;-74
2022/11/29 02:39:07;;;;;;;0.00;0.00;;;;;;;16.19;63.42;101607.78;2076597;28;20102;-74
2022/11/29 02:40:39;;;;;;;0.00;0.00;;;;;;;16.21;63.40;101602.78;2077572;28;20084;-73
2022/11/29 02:41:54;;;;;;;0.00;0.00;;;;;;;16.21;63.44;101613.69;2078248;28;20057;-73
2022/11/29 02:43:26;;;;;;;0.00;0.00;;;;;;;16.19;63.16;101615.97;2077557;28;20056;-74
2022/11/29 02:45:00;;;;;;;0.00;0.00;;;;;;;16.14;63.49;101608.06;2077948;28;20497;-73
2022/11/29 02:46:23;;;;;;;0.00;0.00;;;;;;;16.16;63.29;101611.22;2077889;28;20045;-73
2022/11/29 02:47:37;;;;;;;0.00;0.00;;;;;;;16.18;63.32;101611.66;2080910;28;20088;-73
2022/11/29 02:48:59;;;;;;;0.00;0.00;;;;;;;16.19;63.21;101615.16;2077918;28;20041;-73
2022/11/29 02:50:23;;;;;;;0.00;0.00;;;;;;;16.16;63.23;101610.44;2078551;28;20095;-73
2022/11/29 02:51:37;;;;;;;0.00;0.00;;;;;;;16.19;63.33;101615.97;2078731;28;20047;-74
2022/11/29 02:52:47;;;;;;;0.00;0.00;;;;;;;16.20;63.20;101614.84;2077362;28;20627;-73
2022/11/29 02:53:56;;;;;;;0.00;0.00;;;;;;;16.21;63.28;101619.13;2078355;28;20123;-73
2022/11/29 02:55:05;;;;;;;0.00;0.00;;;;;;;16.19;63.54;101615.97;2079179;28;20049;-72
2022/11/29 02:56:13;;;;;;;0.00;0.00;;;;;;;16.22;63.14;101619.91;2077309;28;20057;-72
2022/11/29 02:57:24;;;;;;;0.00;0.00;;;;;;;16.22;63.03;101620.69;2079550;28;20505;-73
2022/11/29 02:58:35;;;;;;;0.00;0.00;;;;;;;16.22;63.15;101619.91;2076478;28;20061;-74
2022/11/29 02:59:47;;;;;;;0.00;0.00;;;;;;;16.22;63.11;101620.69;2077289;28;20058;-74
2022/11/29 03:00:58;;;;;;;0.00;0.00;;;;;;;16.21;63.14;101629.22;2076749;28;20425;-74
2022/11/29 03:02:10;;;;;;;0.00;0.00;;;;;;;16.22;63.12;101630.81;2078177;28;20572;-74
2022/11/29 03:03:22;;;;;;;0.00;0.00;;;;;;;16.20;63.34;101628.44;2090550;28;20045;-74
2022/11/29 03:04:32;;;;;;;0.00;0.00;;;;;;;16.21;62.99;101634.69;2086119;28;20060;-74
2022/11/29 03:05:41;;;;;;;0.00;0.00;;;;;;;16.20;63.06;101633.91;2085366;28;20421;-73
2022/11/29 03:06:50;;;;;;;0.00;0.00;;;;;;;16.22;63.13;101637.03;2092803;28;20041;-73
2022/11/29 03:08:00;;;;;;;0.00;0.00;;;;;;;16.23;62.94;101638.63;2096768;28;20048;-73
2022/11/29 03:09:10;;;;;;;0.00;0.00;;;;;;;16.22;62.99;101636.28;2096138;28;20048;-74
2022/11/29 03:10:18;;;;;;;;;;;;;;;16.04;63.41;101635.91;2094869;28;20056;-73
2022/11/29 03:11:30;;;;;;;0.00;0.00;;;;;;;16.13;63.01;101630.22;2086929;28;19928;-73
2022/11/29 03:12:42;;;;;;;0.00;0.00;;;;;;;16.15;62.98;101631.47;2085391;28;20563;-73
2022/11/29 03:13:51;;;;;;;0.00;0.00;;;;;;;16.18;62.93;101635.38;2095334;28;20067;-74
2022/11/29 03:15:08;;;;;;;0.00;0.00;;;;;;;16.17;62.92;101640.03;2093239;28;20085;-74
2022/11/29 03:16:23;;;;;;;0.00;0.00;;;;;;;16.18;62.78;101647.09;2093619;28;20044;-74
2022/11/29 03:17:35;;;;;;;0.00;0.00;;;;;;;16.17;62.79;101640.03;2095345;28;20087;-71
2022/11/29 03:18:54;;;;;;;0.00;0.00;;;;;;;16.15;62.64;101638.84;2092947;28;20056;-73
2022/11/29 03:20:10;;;;;;;0.00;0.00;;;;;;;16.16;62.89;101643.94;2093852;28;20056;-74
2022/11/29 03:21:24;;;;;;;0.00;0.00;;;;;;;16.16;62.83;101643.13;2094121;28;20416;-73
2022/11/29 03:22:40;;;;;;;0.00;0.00;;;;;;;16.15;62.90;101647.81;2094095;28;20341;-73
2022/11/29 03:23:47;;;;;;;0.00;0.00;;;;;;;16.18;62.66;101647.09;2092696;28;20045;-74
2022/11/29 03:24:54;;;;;;;0.00;0.00;;;;;;;16.19;62.66;101648.66;2095180;28;20084;-74
2022/11/29 03:26:04;;;;;;;0.00;0.00;;;;;;;16.20;62.73;101649.44;2086876;28;20079;-74
2022/11/29 03:27:11;;;;;;;0.00;0.00;;;;;;;16.18;62.84;101646.28;2087666;28;20069;-73
2022/11/29 03:28:18;;;;;;;0.00;0.00;;;;;;;16.19;62.67;101648.66;2085824;28;20099;-74
2022/11/29 03:29:26;;;;;;;0.00;0.00;;;;;;;16.19;62.76;101648.66;2083373;28;20053;-73
2022/11/29 03:30:32;;;;;;;0.00;0.00;;;;;;;16.20;62.60;101652.97;2096100;28;20074;-73
2022/11/29 03:31:38;;;;;;;0.00;0.00;;;;;;;16.21;62.75;101651.03;2093939;28;20059;-72
2022/11/29 03:32:49;;;;;;;0.00;0.00;;;;;;;16.19;62.53;101648.66;2084126;28;20452;-72
2022/11/29 03:33:59;;;;;;;0.00;0.00;;;;;;;16.19;62.43;101654.09;2086887;28;20080;-72
2022/11/29 03:35:10;;;;;;;0.00;0.00;;;;;;;16.17;62.33;101645.50;2093824;28;20047;-72
2022/11/29 03:36:19;;;;;;;0.00;0.00;;;;;;;16.20;62.46;101660.34;2084103;28;20053;-72
2022/11/29 03:37:28;;;;;;;0.00;0.00;;;;;;;16.18;62.46;101652.53;2087150;28;20057;-72
2022/11/29 03:38:38;;;;;;;0.00;0.00;;;;;;;16.18;62.47;101666.16;2092957;28;20075;-72
2022/11/29 03:39:49;;;;;;;0.00;0.00;;;;;;;16.18;62.42;101663.44;2082773;28;20449;-73
2022/11/29 03:40:56;;;;;;;0.00;0.00;;;;;;;16.19;62.27;101662.28;2077274;28;20135;-72
2022/11/29 03:42:03;;;;;;;0.00;0.00;;;;;;;16.21;62.34;101670.09;2087883;28;20072;-72
2022/11/29 03:43:08;;;;;;;0.00;0.00;;;;;;;16.21;62.52;101664.66;2093708;28;20059;-72
2022/11/29 03:44:15;;;;;;;0.00;0.00;;;;;;;16.20;62.32;101661.16;2091878;28;20044;-73
2022/11/29 03:45:23;;;;;;;0.00;0.00;;;;;;;16.19;62.47;101661.47;2085152;28;20125;-72
2022/11/29 03:46:34;;;;;;;0.00;0.00;;;;;;;16.18;62.37;101666.16;2087594;28;20060;-72
2022/11/29 03:47:44;;;;;;;0.00;0.00;;;;;;;16.19;62.32;101664.22;2093805;28;20139;-72
2022/11/29 03:48:50;;;;;;;0.00;0.00;;;;;;;16.21;62.38;101673.63;2090665;28;20076;-72
2022/11/29 03:49:58;;;;;;;0.00;0.00;;;;;;;16.21;62.35;101665.44;2085430;28;20560;-72
2022/11/29 03:51:07;;;;;;;0.00;0.00;;;;;;;16.20;62.36;101660.34;2086014;28;20045;-72
2022/11/29 03:52:14;;;;;;;0.00;0.00;;;;;;;16.20;62.35;101669.31;2092868;28;20499;-72
2022/11/29 03:53:28;;;;;;;0.00;0.00;;;;;;;16.19;62.26;101670.44;2082250;28;20063;-72
2022/11/29 03:54:41;;;;;;;0.00;0.00;;;;;;;16.19;62.26;101667.72;2067896;28;20057;-72
2022/11/29 03:55:54;;;;;;;0.00;0.00;;;;;;;16.15;62.08;101683.22;2065414;28;20058;-72
2022/11/29 03:56:56;;;;;;;0.00;0.00;;;;;;;16.18;62.28;101668.88;2071252;28;20058;-72
2022/11/29 03:58:13;;;;;;;0.00;0.00;;;;;;;16.19;62.15;101669.66;2084691;28;20063;-72
2022/11/29 03:59:28;;;;;;;0.00;0.00;;;;;;;16.14;62.18;101659.84;2087191;28;20052;-73
2022/11/29 04:00:35;;;;;;;0.00;0.00;;;;;;;16.17;62.17;101672.75;2089533;28;20045;-72
2022/11/29 04:02:20;;;;;;;0.00;0.00;;;;;;;16.10;62.10;101677.25;2083812;28;20054;-72
2022/11/29 04:03:48;;;;;;;0.00;0.00;;;;;;;16.09;62.27;101681.91;2090865;28;20060;-72
2022/11/29 04:05:21;;;;;;;0.00;0.00;;;;;;;16.08;62.09;101685.00;2084872;28;20444;-72
2022/11/29 04:06:38;;;;;;;0.00;0.00;;;;;;;16.11;62.21;101685.06;2091702;28;20056;-72
2022/11/29 04:07:52;;;;;;;0.00;0.00;;;;;;;16.11;61.99;101687.03;2094008;28;20520;-72
2022/11/29 04:09:11;;;;;;;0.00;0.00;;;;;;;16.13;61.82;101684.72;2083607;28;20057;-72
2022/11/29 04:10:25;;;;;;;0.00;0.00;;;;;;;16.12;62.14;101691.31;2085495;28;20077;-71
2022/11/29 04:11:53;;;;;;;0.00;0.00;;;;;;;16.12;62.02;101691.31;2096361;28;20096;-72
2022/11/29 04:13:44;;;;;;;0.00;0.00;;;;;;;16.07;62.12;101694.31;2092584;28;20383;-72
2022/11/29 04:15:18;;;;;;;0.00;0.00;;;;;;;16.02;62.00;101698.13;2085283;28;20061;-72
2022/11/29 04:16:37;;;;;;;0.00;0.00;;;;;;;16.07;62.03;101695.13;2090134;28;20053;-71
2022/11/29 04:18:15;;;;;;;0.00;0.00;;;;;;;16.02;62.18;101694.59;2085259;28;20527;-70
2022/11/29 04:19:57;;;;;;;0.00;0.00;;;;;;;15.98;61.97;101699.94;2081271;28;20064;-72
2022/11/29 04:21:33;;;;;;;0.00;0.00;;;;;;;16.04;62.03;101701.28;2095895;28;20501;-71
2022/11/29 04:23:02;;;;;;;0.00;0.00;;;;;;;16.00;62.04;101699.59;2067918;28;20061;-71
2022/11/29 04:24:26;;;;;;;0.00;0.00;;;;;;;16.02;61.99;101697.31;2082501;28;20103;-72
2022/11/29 04:26:03;;;;;;;0.00;0.00;;;;;;;16.00;62.00;101700.41;2089920;28;20783;-71
2022/11/29 04:27:37;;;;;;;0.00;0.00;;;;;;;16.01;61.97;101702.00;2062911;28;20051;-72
2022/11/29 04:29:04;;;;;;;0.00;0.00;;;;;;;15.99;61.81;101701.56;2093711;28;20049;-72
2022/11/29 04:30:13;;;;;;;0.00;0.00;;;;;;;16.03;61.85;101705.13;2095918;28;20056;-72
2022/11/29 04:31:27;;;;;;;0.00;0.00;;;;;;;16.02;61.77;101709.00;2085537;28;20061;-72
2022/11/29 04:33:02;;;;;;;0.00;0.00;;;;;;;16.00;61.89;101708.56;2072475;28;20053;-72
2022/11/29 04:34:19;;;;;;;0.00;0.00;;;;;;;16.02;61.74;101697.31;2088265;28;20104;-72
2022/11/29 04:35:42;;;;;;;0.00;0.00;;;;;;;16.01;61.63;101701.19;2097064;28;20083;-72
2022/11/29 04:37:08;;;;;;;0.00;0.00;;;;;;;15.99;61.70;101701.56;2086572;28;20080;-72
2022/11/29 04:38:29;;;;;;;0.00;0.00;;;;;;;15.98;61.75;101702.69;2088804;28;20053;-72
2022/11/29 04:40:08;;;;;;;0.00;0.00;;;;;;;15.96;61.84;101702.25;2087332;28;20053;-72
2022/11/29 04:41:34;;;;;;;0.00;0.00;;;;;;;15.96;61.59;101699.53;2059612;28;20046;-72
2022/11/29 04:43:09;;;;;;;0.00;0.00;;;;;;;15.96;61.86;101694.09;2080814;28;20050;-72
2022/11/29 04:44:30;;;;;;;0.00;0.00;;;;;;;15.97;61.70;101703.84;2083868;28;20428;-72
2022/11/29 04:45:52;;;;;;;0.00;0.00;;;;;;;15.97;61.52;101700.31;2089296;28;20048;-72
2022/11/29 04:47:13;;;;;;;0.00;0.00;;;;;;;15.98;61.72;101702.69;2097548;28;20048;-72
2022/11/29 04:48:32;;;;;;;0.00;0.00;;;;;;;15.98;61.69;101707.34;2095580;28;20053;-72
2022/11/29 04:50:08;;;;;;;0.00;0.00;;;;;;;15.96;61.51;101710.44;2096451;28;20057;-72
2022/11/29 04:51:20;;;;;;;0.00;0.00;;;;;;;15.97;61.60;101711.22;2065053;28;20048;-72
2022/11/29 04:52:47;;;;;;;0.00;0.00;;;;;;;15.95;61.46;101710.78;2086605;28;20084;-72
2022/11/29 04:53:55;;;;;;;0.00;0.00;;;;;;;15.99;61.54;101719.81;2084015;28;20091;-72
2022/11/29 04:55:04;;;;;;;0.00;0.00;;;;;;;16.01;61.41;101718.34;2087649;28;20080;-72
2022/11/29 04:56:19;;;;;;;0.00;0.00;;;;;;;15.99;61.30;101712.44;2087557;28;20056;-72
2022/11/29 04:57:30;;;;;;;0.00;0.00;;;;;;;16.01;61.38;101717.53;2079470;28;20057;-72
2022/11/29 04:58:39;;;;;;;0.00;0.00;;;;;;;16.01;61.30;101717.53;2071361;28;20526;-72
2022/11/29 04:59:49;;;;;;;0.00;0.00;;;;;;;16.02;61.33;101733.53;2078580;28;20060;-72
2022/11/29 05:00:59;;;;;;;0.00;0.00;;;;;;;16.01;61.44;101731.16;2089994;28;20052;-72
2022/11/29 05:02:12;;;;;;;0.00;0.00;;;;;;;16.00;61.35;101716.75;2078145;28;20529;-72
2022/11/29 05:03:23;;;;;;;0.00;0.00;;;;;;;16.01;61.43;101734.69;2074426;28;20073;-71
2022/11/29 05:04:36;;;;;;;0.00;0.00;;;;;;;16.03;61.24;101726.91;2087567;28;20083;-72
2022/11/29 05:05:45;;;;;;;0.00;0.00;;;;;;;16.03;61.24;101731.59;2085659;28;20048;-72
2022/11/29 05:07:01;;;;;;;0.00;0.00;;;;;;;16.01;61.12;101736.59;2087314;28;20105;-71
2022/11/29 05:08:20;;;;;;;0.00;0.00;;;;;;;15.99;61.17;101736.97;2094759;28;20060;-72
2022/11/29 05:09:32;;;;;;;0.00;0.00;;;;;;;16.00;61.24;101730.34;2094009;28;20056;-71
2022/11/29 05:10:43;;;;;;;0.00;0.00;;;;;;;16.02;61.18;101735.44;2093751;28;20056;-71
2022/11/29 05:11:58;;;;;;;0.00;0.00;;;;;;;16.01;61.15;101734.69;2096588;28;20067;-70
2022/11/29 05:13:09;;;;;;;0.00;0.00;;;;;;;16.01;61.21;101731.97;2094600;28;20164;-71
2022/11/29 05:14:19;;;;;;;0.00;0.00;;;;;;;16.02;61.10;101735.44;2095823;28;20115;-71
2022/11/29 05:15:44;;;;;;;0.00;0.00;;;;;;;15.95;60.72;101736.06;2086834;28;20060;-71
2022/11/29 05:16:52;;;;;;;0.00;0.00;;;;;;;16.01;61.05;101733.88;2090427;28;20128;-71
2022/11/29 05:18:03;;;;;;;0.00;0.00;;;;;;;16.02;60.99;101736.25;2084579;28;20068;-71
2022/11/29 05:19:27;;;;;;;;;;;;;;;15.85;61.47;101733.13;2072324;28;20050;-71
2022/11/29 05:20:41;;;;;;;0.00;0.00;;;;;;;15.92;61.26;101742.22;2069985;28;19925;-71
2022/11/29 05:21:57;;;;;;;0.00;0.00;;;;;;;15.94;61.19;101745.41;2070997;28;20487;-71
2022/11/29 05:23:19;;;;;;;0.00;0.00;;;;;;;15.94;60.99;101750.84;2088660;28;20052;-71
2022/11/29 05:24:38;;;;;;;0.00;0.00;;;;;;;15.95;61.12;101741.53;2077693;28;20112;-71
2022/11/29 05:25:48;;;;;;;0.00;0.00;;;;;;;15.96;60.96;101737.69;2082428;28;20613;-71
2022/11/29 05:26:58;;;;;;;0.00;0.00;;;;;;;15.96;60.95;101748.56;2086338;28;20089;-72
2022/11/29 05:28:04;;;;;;;;;;;;;;;15.81;61.43;101746.66;2086929;28;20440;-71
2022/11/29 05:29:19;;;;;;;0.00;0.00;;;;;;;15.91;61.26;101740.66;2085277;28;19932;-71
2022/11/29 05:30:24;;;;;;;0.00;0.00;;;;;;;15.94;61.10;101750.84;2086913;28;20088;-71
2022/11/29 05:31:42;;;;;;;0.00;0.00;;;;;;;15.94;60.87;101745.41;2085948;28;20060;-71
2022/11/29 05:32:54;;;;;;;0.00;0.00;;;;;;;15.96;61.09;101748.56;2080852;28;20088;-72
2022/11/29 05:34:23;;;;;;;0.00;0.00;;;;;;;15.90;61.00;101747.25;2089613;28;20064;-72